sensor_id;sensor_type;location;lat;lon;timestamp;P1;durP1;ratioP1;P2;durP2;ratioP2
41815;SDS011;27814;53.452;-6.180;2022-11-20T00:01:22;6.18;;;1.80;;
41815;SDS011;27814;53.452;-6.180;2022-11-20T00:03:53;5.88;;;1.95;;
41815;SDS011;27814;53.452;-6.180;2022-11-20T00:06:24;7.60;;;2.22;;
41815;SDS011;27814;53.452;-6.180;2022-11-20T00:08:55;7.75;;;1.92;;
41815;SDS011;27814;53.452;-6.180;2022-11-20T00:11:26;8.75;;;2.28;;
41815;SDS011;27814;53.452;-6.180;2022-11-20T00:13:57;9.25;;;2.55;;
41815;SDS011;27814;53.452;-6.180;2022-11-20T00:16:29;8.60;;;2.13;;
41815;SDS011;27814;53.452;-6.180;2022-11-20T00:18:59;8.68;;;2.08;;
41815;SDS011;27814;53.452;-6.180;2022-11-20T00:21:29;6.70;;;2.00;;
41815;SDS011;27814;53.452;-6.180;2022-11-20T00:23:57;9.00;;;2.72;;
41815;SDS011;27814;53.452;-6.180;2022-11-20T00:26:28;10.13;;;2.42;;
41815;SDS011;27814;53.452;-6.180;2022-11-20T00:28:57;9.50;;;2.58;;
41815;SDS011;27814;53.452;-6.180;2022-11-20T00:31:26;8.65;;;2.78;;
41815;SDS011;27814;53.452;-6.180;2022-11-20T00:33:56;9.75;;;2.50;;
41815;SDS011;27814;53.452;-6.180;2022-11-20T00:36:24;10.70;;;2.88;;
41815;SDS011;27814;53.452;-6.180;2022-11-20T00:38:55;9.52;;;2.83;;
41815;SDS011;27814;53.452;-6.180;2022-11-20T00:41:25;9.32;;;2.42;;
41815;SDS011;27814;53.452;-6.180;2022-11-20T00:43:55;7.32;;;2.20;;
41815;SDS011;27814;53.452;-6.180;2022-11-20T00:46:24;10.27;;;3.20;;
41815;SDS011;27814;53.452;-6.180;2022-11-20T00:48:54;8.32;;;2.40;;
41815;SDS011;27814;53.452;-6.180;2022-11-20T00:51:24;9.23;;;2.95;;
41815;SDS011;27814;53.452;-6.180;2022-11-20T00:53:54;10.07;;;2.88;;
41815;SDS011;27814;53.452;-6.180;2022-11-20T00:56:23;12.70;;;3.10;;
41815;SDS011;27814;53.452;-6.180;2022-11-20T00:58:51;12.52;;;2.97;;
41815;SDS011;27814;53.452;-6.180;2022-11-20T01:01:22;9.27;;;2.65;;
41815;SDS011;27814;53.452;-6.180;2022-11-20T01:03:52;11.35;;;3.05;;
41815;SDS011;27814;53.452;-6.180;2022-11-20T01:06:23;9.30;;;2.90;;
41815;SDS011;27814;53.452;-6.180;2022-11-20T01:08:53;8.67;;;2.90;;
41815;SDS011;27814;53.452;-6.180;2022-11-20T01:11:23;10.10;;;2.47;;
41815;SDS011;27814;53.452;-6.180;2022-11-20T01:13:53;9.20;;;2.35;;
41815;SDS011;27814;53.452;-6.180;2022-11-20T01:16:24;12.38;;;2.88;;
41815;SDS011;27814;53.452;-6.180;2022-11-20T01:18:55;9.37;;;2.27;;
41815;SDS011;27814;53.452;-6.180;2022-11-20T01:21:26;9.85;;;2.70;;
41815;SDS011;27814;53.452;-6.180;2022-11-20T01:23:56;10.88;;;2.45;;
41815;SDS011;27814;53.452;-6.180;2022-11-20T01:26:26;11.32;;;2.88;;
41815;SDS011;27814;53.452;-6.180;2022-11-20T01:28:56;13.70;;;2.67;;
41815;SDS011;27814;53.452;-6.180;2022-11-20T01:31:27;11.07;;;3.10;;
41815;SDS011;27814;53.452;-6.180;2022-11-20T01:33:57;12.13;;;2.97;;
41815;SDS011;27814;53.452;-6.180;2022-11-20T01:36:28;15.63;;;3.58;;
41815;SDS011;27814;53.452;-6.180;2022-11-20T01:38:58;15.10;;;3.00;;
41815;SDS011;27814;53.452;-6.180;2022-11-20T01:41:28;16.90;;;3.42;;
41815;SDS011;27814;53.452;-6.180;2022-11-20T01:44:17;11.25;;;2.38;;
41815;SDS011;27814;53.452;-6.180;2022-11-20T01:46:51;14.48;;;3.22;;
41815;SDS011;27814;53.452;-6.180;2022-11-20T01:49:24;12.95;;;3.03;;
41815;SDS011;27814;53.452;-6.180;2022-11-20T01:51:58;16.50;;;2.70;;
41815;SDS011;27814;53.452;-6.180;2022-11-20T01:54:33;16.50;;;3.33;;
41815;SDS011;27814;53.452;-6.180;2022-11-20T01:57:03;17.17;;;2.87;;
41815;SDS011;27814;53.452;-6.180;2022-11-20T01:59:35;15.18;;;2.97;;
41815;SDS011;27814;53.452;-6.180;2022-11-20T02:02:06;17.67;;;2.70;;
41815;SDS011;27814;53.452;-6.180;2022-11-20T02:04:35;11.30;;;2.70;;
41815;SDS011;27814;53.452;-6.180;2022-11-20T02:07:04;12.40;;;2.90;;
41815;SDS011;27814;53.452;-6.180;2022-11-20T02:09:33;10.27;;;2.90;;
41815;SDS011;27814;53.452;-6.180;2022-11-20T02:12:02;15.40;;;3.45;;
41815;SDS011;27814;53.452;-6.180;2022-11-20T02:14:31;18.10;;;3.27;;
41815;SDS011;27814;53.452;-6.180;2022-11-20T02:16:58;17.23;;;3.28;;
41815;SDS011;27814;53.452;-6.180;2022-11-20T02:19:30;19.00;;;3.40;;
41815;SDS011;27814;53.452;-6.180;2022-11-20T02:22:00;20.58;;;3.33;;
41815;SDS011;27814;53.452;-6.180;2022-11-20T02:24:34;14.57;;;2.75;;
41815;SDS011;27814;53.452;-6.180;2022-11-20T02:27:03;18.17;;;3.47;;
41815;SDS011;27814;53.452;-6.180;2022-11-20T02:29:36;15.68;;;3.53;;
41815;SDS011;27814;53.452;-6.180;2022-11-20T02:32:16;19.17;;;3.47;;
41815;SDS011;27814;53.452;-6.180;2022-11-20T02:34:45;19.58;;;3.35;;
41815;SDS011;27814;53.452;-6.180;2022-11-20T02:37:14;13.32;;;2.63;;
41815;SDS011;27814;53.452;-6.180;2022-11-20T02:39:44;17.27;;;2.80;;
41815;SDS011;27814;53.452;-6.180;2022-11-20T02:42:14;15.87;;;3.10;;
41815;SDS011;27814;53.452;-6.180;2022-11-20T02:44:43;13.98;;;2.85;;
41815;SDS011;27814;53.452;-6.180;2022-11-20T02:47:11;15.27;;;2.85;;
41815;SDS011;27814;53.452;-6.180;2022-11-20T02:49:40;17.25;;;2.67;;
41815;SDS011;27814;53.452;-6.180;2022-11-20T02:52:08;18.15;;;3.05;;
41815;SDS011;27814;53.452;-6.180;2022-11-20T02:54:36;15.43;;;3.43;;
41815;SDS011;27814;53.452;-6.180;2022-11-20T02:57:06;15.25;;;3.08;;
41815;SDS011;27814;53.452;-6.180;2022-11-20T02:59:34;16.27;;;3.85;;
41815;SDS011;27814;53.452;-6.180;2022-11-20T03:02:03;16.45;;;3.03;;
41815;SDS011;27814;53.452;-6.180;2022-11-20T03:04:34;18.98;;;3.33;;
41815;SDS011;27814;53.452;-6.180;2022-11-20T03:07:02;16.90;;;3.03;;
41815;SDS011;27814;53.452;-6.180;2022-11-20T03:09:31;19.77;;;3.15;;
41815;SDS011;27814;53.452;-6.180;2022-11-20T03:11:59;15.95;;;3.63;;
41815;SDS011;27814;53.452;-6.180;2022-11-20T03:14:29;19.60;;;3.57;;
41815;SDS011;27814;53.452;-6.180;2022-11-20T03:16:57;17.63;;;3.40;;
41815;SDS011;27814;53.452;-6.180;2022-11-20T03:19:26;13.30;;;3.00;;
41815;SDS011;27814;53.452;-6.180;2022-11-20T03:21:54;15.02;;;3.50;;
41815;SDS011;27814;53.452;-6.180;2022-11-20T03:24:22;16.05;;;3.88;;
41815;SDS011;27814;53.452;-6.180;2022-11-20T03:26:51;13.25;;;2.58;;
41815;SDS011;27814;53.452;-6.180;2022-11-20T03:29:19;13.55;;;3.20;;
41815;SDS011;27814;53.452;-6.180;2022-11-20T03:31:50;12.30;;;2.85;;
41815;SDS011;27814;53.452;-6.180;2022-11-20T03:34:18;10.65;;;2.90;;
41815;SDS011;27814;53.452;-6.180;2022-11-20T03:36:46;18.03;;;3.03;;
41815;SDS011;27814;53.452;-6.180;2022-11-20T03:39:15;13.02;;;2.70;;
41815;SDS011;27814;53.452;-6.180;2022-11-20T03:41:43;12.02;;;2.70;;
41815;SDS011;27814;53.452;-6.180;2022-11-20T03:44:12;14.43;;;2.60;;
41815;SDS011;27814;53.452;-6.180;2022-11-20T03:46:40;12.75;;;2.80;;
41815;SDS011;27814;53.452;-6.180;2022-11-20T03:49:10;11.02;;;2.85;;
41815;SDS011;27814;53.452;-6.180;2022-11-20T03:51:38;16.48;;;2.67;;
41815;SDS011;27814;53.452;-6.180;2022-11-20T03:54:07;13.18;;;2.53;;
41815;SDS011;27814;53.452;-6.180;2022-11-20T03:56:37;12.27;;;2.10;;
41815;SDS011;27814;53.452;-6.180;2022-11-20T03:59:06;11.48;;;2.65;;
41815;SDS011;27814;53.452;-6.180;2022-11-20T04:01:37;9.63;;;2.13;;
41815;SDS011;27814;53.452;-6.180;2022-11-20T04:04:13;11.70;;;2.20;;
41815;SDS011;27814;53.452;-6.180;2022-11-20T04:06:41;15.73;;;2.43;;
41815;SDS011;27814;53.452;-6.180;2022-11-20T04:09:10;10.70;;;2.20;;
41815;SDS011;27814;53.452;-6.180;2022-11-20T04:11:39;10.98;;;1.98;;
41815;SDS011;27814;53.452;-6.180;2022-11-20T04:14:11;9.27;;;2.22;;
41815;SDS011;27814;53.452;-6.180;2022-11-20T04:16:41;9.88;;;2.47;;
41815;SDS011;27814;53.452;-6.180;2022-11-20T04:19:11;8.68;;;1.85;;
41815;SDS011;27814;53.452;-6.180;2022-11-20T04:21:43;7.15;;;2.20;;
41815;SDS011;27814;53.452;-6.180;2022-11-20T04:24:11;8.55;;;1.73;;
41815;SDS011;27814;53.452;-6.180;2022-11-20T04:26:40;9.68;;;1.80;;
41815;SDS011;27814;53.452;-6.180;2022-11-20T04:29:10;9.80;;;3.00;;
41815;SDS011;27814;53.452;-6.180;2022-11-20T04:31:39;12.77;;;2.20;;
41815;SDS011;27814;53.452;-6.180;2022-11-20T04:34:07;12.73;;;2.22;;
41815;SDS011;27814;53.452;-6.180;2022-11-20T04:36:42;12.93;;;2.00;;
41815;SDS011;27814;53.452;-6.180;2022-11-20T04:39:11;9.80;;;1.83;;
41815;SDS011;27814;53.452;-6.180;2022-11-20T04:41:41;10.05;;;1.73;;
41815;SDS011;27814;53.452;-6.180;2022-11-20T04:44:10;13.05;;;2.17;;
41815;SDS011;27814;53.452;-6.180;2022-11-20T04:46:39;8.43;;;2.10;;
41815;SDS011;27814;53.452;-6.180;2022-11-20T04:49:10;11.70;;;2.70;;
41815;SDS011;27814;53.452;-6.180;2022-11-20T04:51:40;13.60;;;2.40;;
41815;SDS011;27814;53.452;-6.180;2022-11-20T04:54:09;9.30;;;1.95;;
41815;SDS011;27814;53.452;-6.180;2022-11-20T04:56:39;13.38;;;2.00;;
41815;SDS011;27814;53.452;-6.180;2022-11-20T04:59:07;9.13;;;1.98;;
41815;SDS011;27814;53.452;-6.180;2022-11-20T05:01:35;12.68;;;2.28;;
41815;SDS011;27814;53.452;-6.180;2022-11-20T05:04:04;12.47;;;2.10;;
41815;SDS011;27814;53.452;-6.180;2022-11-20T05:06:32;15.70;;;2.42;;
41815;SDS011;27814;53.452;-6.180;2022-11-20T05:09:02;13.13;;;2.47;;
41815;SDS011;27814;53.452;-6.180;2022-11-20T05:11:31;13.10;;;2.50;;
41815;SDS011;27814;53.452;-6.180;2022-11-20T05:13:59;13.55;;;2.40;;
41815;SDS011;27814;53.452;-6.180;2022-11-20T05:16:28;16.88;;;2.40;;
41815;SDS011;27814;53.452;-6.180;2022-11-20T05:18:56;17.87;;;3.03;;
41815;SDS011;27814;53.452;-6.180;2022-11-20T05:21:25;11.73;;;2.20;;
41815;SDS011;27814;53.452;-6.180;2022-11-20T05:23:53;15.82;;;2.78;;
41815;SDS011;27814;53.452;-6.180;2022-11-20T05:26:23;13.85;;;2.80;;
41815;SDS011;27814;53.452;-6.180;2022-11-20T05:28:52;13.82;;;2.60;;
41815;SDS011;27814;53.452;-6.180;2022-11-20T05:31:21;10.00;;;2.70;;
41815;SDS011;27814;53.452;-6.180;2022-11-20T05:33:54;14.60;;;2.42;;
41815;SDS011;27814;53.452;-6.180;2022-11-20T05:36:23;16.42;;;2.80;;
41815;SDS011;27814;53.452;-6.180;2022-11-20T05:38:52;15.05;;;2.83;;
41815;SDS011;27814;53.452;-6.180;2022-11-20T05:41:28;12.48;;;2.72;;
41815;SDS011;27814;53.452;-6.180;2022-11-20T05:43:57;14.43;;;2.58;;
41815;SDS011;27814;53.452;-6.180;2022-11-20T05:46:25;10.13;;;2.20;;
41815;SDS011;27814;53.452;-6.180;2022-11-20T05:48:55;10.65;;;2.38;;
41815;SDS011;27814;53.452;-6.180;2022-11-20T05:51:24;12.63;;;2.50;;
41815;SDS011;27814;53.452;-6.180;2022-11-20T05:53:53;11.30;;;2.13;;
41815;SDS011;27814;53.452;-6.180;2022-11-20T05:56:23;14.55;;;2.28;;
41815;SDS011;27814;53.452;-6.180;2022-11-20T05:58:53;13.25;;;2.53;;
41815;SDS011;27814;53.452;-6.180;2022-11-20T06:01:22;11.48;;;2.20;;
41815;SDS011;27814;53.452;-6.180;2022-11-20T06:03:52;13.40;;;2.67;;
41815;SDS011;27814;53.452;-6.180;2022-11-20T06:06:21;9.85;;;2.10;;
41815;SDS011;27814;53.452;-6.180;2022-11-20T06:08:51;11.38;;;2.03;;
41815;SDS011;27814;53.452;-6.180;2022-11-20T06:11:20;11.25;;;2.25;;
41815;SDS011;27814;53.452;-6.180;2022-11-20T06:13:48;9.35;;;2.17;;
41815;SDS011;27814;53.452;-6.180;2022-11-20T06:16:19;10.52;;;1.90;;
41815;SDS011;27814;53.452;-6.180;2022-11-20T06:18:48;12.57;;;1.80;;
41815;SDS011;27814;53.452;-6.180;2022-11-20T06:21:17;11.63;;;1.83;;
41815;SDS011;27814;53.452;-6.180;2022-11-20T06:23:47;8.73;;;1.98;;
41815;SDS011;27814;53.452;-6.180;2022-11-20T06:26:17;9.85;;;1.75;;
41815;SDS011;27814;53.452;-6.180;2022-11-20T06:28:47;12.55;;;1.98;;
41815;SDS011;27814;53.452;-6.180;2022-11-20T06:31:16;8.73;;;1.70;;
41815;SDS011;27814;53.452;-6.180;2022-11-20T06:33:47;8.40;;;1.52;;
41815;SDS011;27814;53.452;-6.180;2022-11-20T06:36:17;8.90;;;1.58;;
41815;SDS011;27814;53.452;-6.180;2022-11-20T06:38:46;11.10;;;2.42;;
41815;SDS011;27814;53.452;-6.180;2022-11-20T06:41:15;11.35;;;1.90;;
41815;SDS011;27814;53.452;-6.180;2022-11-20T06:43:46;7.40;;;1.47;;
41815;SDS011;27814;53.452;-6.180;2022-11-20T06:46:16;12.85;;;1.70;;
41815;SDS011;27814;53.452;-6.180;2022-11-20T06:48:47;8.38;;;1.35;;
41815;SDS011;27814;53.452;-6.180;2022-11-20T06:51:16;7.45;;;1.60;;
41815;SDS011;27814;53.452;-6.180;2022-11-20T06:53:44;10.73;;;1.48;;
41815;SDS011;27814;53.452;-6.180;2022-11-20T06:56:13;10.77;;;1.60;;
41815;SDS011;27814;53.452;-6.180;2022-11-20T06:58:41;10.55;;;1.92;;
41815;SDS011;27814;53.452;-6.180;2022-11-20T07:01:10;9.73;;;1.67;;
41815;SDS011;27814;53.452;-6.180;2022-11-20T07:03:40;12.20;;;1.88;;
41815;SDS011;27814;53.452;-6.180;2022-11-20T07:06:10;10.48;;;1.55;;
41815;SDS011;27814;53.452;-6.180;2022-11-20T07:08:39;12.07;;;1.73;;
41815;SDS011;27814;53.452;-6.180;2022-11-20T07:11:07;11.48;;;1.65;;
41815;SDS011;27814;53.452;-6.180;2022-11-20T07:13:39;12.50;;;1.70;;
41815;SDS011;27814;53.452;-6.180;2022-11-20T07:16:07;12.55;;;1.67;;
41815;SDS011;27814;53.452;-6.180;2022-11-20T07:18:36;12.95;;;1.92;;
41815;SDS011;27814;53.452;-6.180;2022-11-20T07:21:05;9.90;;;1.60;;
41815;SDS011;27814;53.452;-6.180;2022-11-20T07:23:37;9.03;;;1.57;;
41815;SDS011;27814;53.452;-6.180;2022-11-20T07:26:06;8.52;;;1.80;;
41815;SDS011;27814;53.452;-6.180;2022-11-20T07:28:35;8.63;;;1.50;;
41815;SDS011;27814;53.452;-6.180;2022-11-20T07:31:04;11.15;;;1.77;;
41815;SDS011;27814;53.452;-6.180;2022-11-20T07:33:34;9.52;;;1.90;;
41815;SDS011;27814;53.452;-6.180;2022-11-20T07:36:02;11.68;;;1.42;;
41815;SDS011;27814;53.452;-6.180;2022-11-20T07:38:31;15.73;;;2.67;;
41815;SDS011;27814;53.452;-6.180;2022-11-20T07:41:01;10.18;;;1.73;;
41815;SDS011;27814;53.452;-6.180;2022-11-20T07:43:29;11.27;;;2.00;;
41815;SDS011;27814;53.452;-6.180;2022-11-20T07:46:05;9.07;;;1.83;;
41815;SDS011;27814;53.452;-6.180;2022-11-20T07:48:33;7.47;;;2.00;;
41815;SDS011;27814;53.452;-6.180;2022-11-20T07:51:02;9.32;;;1.95;;
41815;SDS011;27814;53.452;-6.180;2022-11-20T07:53:30;12.20;;;1.90;;
41815;SDS011;27814;53.452;-6.180;2022-11-20T07:55:59;11.27;;;2.00;;
41815;SDS011;27814;53.452;-6.180;2022-11-20T07:58:30;11.03;;;1.90;;
41815;SDS011;27814;53.452;-6.180;2022-11-20T08:01:03;10.77;;;1.95;;
41815;SDS011;27814;53.452;-6.180;2022-11-20T08:03:33;11.00;;;1.90;;
41815;SDS011;27814;53.452;-6.180;2022-11-20T08:06:04;12.63;;;2.70;;
41815;SDS011;27814;53.452;-6.180;2022-11-20T08:08:33;10.02;;;2.08;;
41815;SDS011;27814;53.452;-6.180;2022-11-20T08:11:07;14.15;;;2.80;;
41815;SDS011;27814;53.452;-6.180;2022-11-20T08:13:55;16.35;;;2.17;;
41815;SDS011;27814;53.452;-6.180;2022-11-20T08:16:42;15.00;;;2.17;;
41815;SDS011;27814;53.452;-6.180;2022-11-20T08:19:11;14.85;;;2.58;;
41815;SDS011;27814;53.452;-6.180;2022-11-20T08:21:40;9.50;;;1.83;;
41815;SDS011;27814;53.452;-6.180;2022-11-20T08:24:09;12.40;;;2.50;;
41815;SDS011;27814;53.452;-6.180;2022-11-20T08:26:38;15.30;;;2.72;;
41815;SDS011;27814;53.452;-6.180;2022-11-20T08:29:08;14.07;;;2.58;;
41815;SDS011;27814;53.452;-6.180;2022-11-20T08:31:37;14.30;;;2.38;;
41815;SDS011;27814;53.452;-6.180;2022-11-20T08:34:05;10.38;;;1.92;;
41815;SDS011;27814;53.452;-6.180;2022-11-20T08:36:35;15.55;;;2.45;;
41815;SDS011;27814;53.452;-6.180;2022-11-20T08:39:04;11.63;;;1.90;;
41815;SDS011;27814;53.452;-6.180;2022-11-20T08:41:33;11.40;;;2.30;;
41815;SDS011;27814;53.452;-6.180;2022-11-20T08:44:03;14.43;;;2.13;;
41815;SDS011;27814;53.452;-6.180;2022-11-20T08:46:35;13.77;;;2.27;;
41815;SDS011;27814;53.452;-6.180;2022-11-20T08:49:06;10.75;;;2.08;;
41815;SDS011;27814;53.452;-6.180;2022-11-20T08:51:36;12.50;;;2.58;;
41815;SDS011;27814;53.452;-6.180;2022-11-20T08:54:05;11.02;;;2.15;;
41815;SDS011;27814;53.452;-6.180;2022-11-20T08:56:33;11.55;;;1.98;;
41815;SDS011;27814;53.452;-6.180;2022-11-20T08:59:02;11.77;;;2.15;;
41815;SDS011;27814;53.452;-6.180;2022-11-20T09:01:52;8.13;;;1.70;;
41815;SDS011;27814;53.452;-6.180;2022-11-20T09:04:20;11.10;;;1.87;;
41815;SDS011;27814;53.452;-6.180;2022-11-20T09:06:49;12.98;;;1.80;;
41815;SDS011;27814;53.452;-6.180;2022-11-20T09:09:17;8.45;;;1.85;;
41815;SDS011;27814;53.452;-6.180;2022-11-20T09:11:47;9.48;;;1.90;;
41815;SDS011;27814;53.452;-6.180;2022-11-20T09:14:16;12.57;;;1.88;;
41815;SDS011;27814;53.452;-6.180;2022-11-20T09:16:44;7.68;;;1.55;;
41815;SDS011;27814;53.452;-6.180;2022-11-20T09:19:14;10.48;;;1.65;;
41815;SDS011;27814;53.452;-6.180;2022-11-20T09:22:00;7.32;;;1.70;;
41815;SDS011;27814;53.452;-6.180;2022-11-20T09:24:29;10.57;;;1.60;;
41815;SDS011;27814;53.452;-6.180;2022-11-20T09:26:58;9.30;;;1.50;;
41815;SDS011;27814;53.452;-6.180;2022-11-20T09:29:28;12.30;;;1.65;;
41815;SDS011;27814;53.452;-6.180;2022-11-20T09:31:57;6.43;;;1.30;;
41815;SDS011;27814;53.452;-6.180;2022-11-20T09:34:27;7.65;;;1.58;;
41815;SDS011;27814;53.452;-6.180;2022-11-20T09:36:55;6.85;;;1.38;;
41815;SDS011;27814;53.452;-6.180;2022-11-20T09:39:29;7.78;;;1.35;;
41815;SDS011;27814;53.452;-6.180;2022-11-20T09:42:04;4.85;;;0.95;;
41815;SDS011;27814;53.452;-6.180;2022-11-20T09:47:48;7.28;;;1.17;;
41815;SDS011;27814;53.452;-6.180;2022-11-20T09:50:41;12.45;;;1.42;;
41815;SDS011;27814;53.452;-6.180;2022-11-20T09:53:16;6.75;;;1.33;;
41815;SDS011;27814;53.452;-6.180;2022-11-20T09:55:52;7.15;;;1.27;;
41815;SDS011;27814;53.452;-6.180;2022-11-20T09:58:25;5.70;;;0.85;;
41815;SDS011;27814;53.452;-6.180;2022-11-20T10:01:00;9.55;;;1.33;;
41815;SDS011;27814;53.452;-6.180;2022-11-20T10:03:37;7.00;;;1.50;;
41815;SDS011;27814;53.452;-6.180;2022-11-20T10:06:12;9.50;;;1.30;;
41815;SDS011;27814;53.452;-6.180;2022-11-20T10:08:45;6.05;;;1.25;;
41815;SDS011;27814;53.452;-6.180;2022-11-20T10:11:21;6.10;;;1.05;;
41815;SDS011;27814;53.452;-6.180;2022-11-20T10:14:01;6.65;;;0.93;;
41815;SDS011;27814;53.452;-6.180;2022-11-20T10:16:41;6.13;;;1.20;;
41815;SDS011;27814;53.452;-6.180;2022-11-20T10:19:23;6.70;;;1.00;;
41815;SDS011;27814;53.452;-6.180;2022-11-20T10:22:08;6.63;;;1.43;;
41815;SDS011;27814;53.452;-6.180;2022-11-20T10:24:53;4.93;;;1.05;;
41815;SDS011;27814;53.452;-6.180;2022-11-20T10:27:31;6.22;;;0.90;;
41815;SDS011;27814;53.452;-6.180;2022-11-20T10:30:26;5.82;;;1.17;;
41815;SDS011;27814;53.452;-6.180;2022-11-20T10:32:58;5.25;;;1.20;;
41815;SDS011;27814;53.452;-6.180;2022-11-20T10:35:33;7.57;;;1.10;;
41815;SDS011;27814;53.452;-6.180;2022-11-20T10:38:09;4.63;;;0.90;;
41815;SDS011;27814;53.452;-6.180;2022-11-20T10:40:44;5.97;;;1.30;;
41815;SDS011;27814;53.452;-6.180;2022-11-20T10:43:16;4.88;;;1.00;;
41815;SDS011;27814;53.452;-6.180;2022-11-20T10:45:49;5.88;;;1.08;;
41815;SDS011;27814;53.452;-6.180;2022-11-20T10:48:23;4.90;;;1.00;;
41815;SDS011;27814;53.452;-6.180;2022-11-20T10:50:55;4.32;;;1.15;;
41815;SDS011;27814;53.452;-6.180;2022-11-20T10:53:34;6.40;;;2.03;;
41815;SDS011;27814;53.452;-6.180;2022-11-20T10:56:16;3.20;;;0.70;;
41815;SDS011;27814;53.452;-6.180;2022-11-20T10:58:51;5.13;;;0.82;;
41815;SDS011;27814;53.452;-6.180;2022-11-20T11:01:27;3.20;;;1.00;;
41815;SDS011;27814;53.452;-6.180;2022-11-20T11:03:56;3.45;;;0.80;;
41815;SDS011;27814;53.452;-6.180;2022-11-20T11:06:29;4.07;;;0.77;;
41815;SDS011;27814;53.452;-6.180;2022-11-20T11:09:10;3.08;;;1.00;;
41815;SDS011;27814;53.452;-6.180;2022-11-20T11:11:43;3.25;;;0.60;;
41815;SDS011;27814;53.452;-6.180;2022-11-20T11:14:12;3.33;;;0.75;;
41815;SDS011;27814;53.452;-6.180;2022-11-20T11:16:48;3.95;;;0.73;;
41815;SDS011;27814;53.452;-6.180;2022-11-20T11:19:18;4.60;;;0.90;;
41815;SDS011;27814;53.452;-6.180;2022-11-20T11:21:47;3.67;;;0.82;;
41815;SDS011;27814;53.452;-6.180;2022-11-20T11:24:23;4.93;;;0.80;;
41815;SDS011;27814;53.452;-6.180;2022-11-20T11:27:10;2.15;;;0.60;;
41815;SDS011;27814;53.452;-6.180;2022-11-20T11:29:44;2.37;;;0.53;;
41815;SDS011;27814;53.452;-6.180;2022-11-20T11:32:13;2.60;;;0.70;;
41815;SDS011;27814;53.452;-6.180;2022-11-20T11:34:43;1.90;;;0.40;;
41815;SDS011;27814;53.452;-6.180;2022-11-20T11:37:13;1.95;;;0.40;;
41815;SDS011;27814;53.452;-6.180;2022-11-20T11:39:47;2.10;;;0.40;;
41815;SDS011;27814;53.452;-6.180;2022-11-20T11:42:40;1.98;;;0.60;;
41815;SDS011;27814;53.452;-6.180;2022-11-20T11:45:11;1.52;;;0.50;;
41815;SDS011;27814;53.452;-6.180;2022-11-20T11:47:44;1.75;;;0.60;;
41815;SDS011;27814;53.452;-6.180;2022-11-20T11:50:15;2.40;;;0.50;;
41815;SDS011;27814;53.452;-6.180;2022-11-20T11:52:49;1.00;;;0.35;;
41815;SDS011;27814;53.452;-6.180;2022-11-20T11:55:37;1.35;;;0.52;;
41815;SDS011;27814;53.452;-6.180;2022-11-20T11:58:15;1.00;;;0.30;;
41815;SDS011;27814;53.452;-6.180;2022-11-20T12:00:54;1.23;;;0.40;;
41815;SDS011;27814;53.452;-6.180;2022-11-20T12:03:27;1.00;;;0.30;;
41815;SDS011;27814;53.452;-6.180;2022-11-20T12:06:01;1.03;;;0.30;;
41815;SDS011;27814;53.452;-6.180;2022-11-20T12:08:37;0.45;;;0.32;;
41815;SDS011;27814;53.452;-6.180;2022-11-20T12:11:18;1.00;;;0.40;;
41815;SDS011;27814;53.452;-6.180;2022-11-20T12:13:53;1.30;;;0.47;;
41815;SDS011;27814;53.452;-6.180;2022-11-20T12:16:28;2.30;;;0.65;;
41815;SDS011;27814;53.452;-6.180;2022-11-20T12:19:02;2.40;;;0.60;;
41815;SDS011;27814;53.452;-6.180;2022-11-20T12:21:38;2.10;;;0.55;;
41815;SDS011;27814;53.452;-6.180;2022-11-20T12:24:25;1.80;;;0.50;;
41815;SDS011;27814;53.452;-6.180;2022-11-20T12:27:12;1.33;;;0.50;;
41815;SDS011;27814;53.452;-6.180;2022-11-20T12:30:01;1.60;;;0.50;;
41815;SDS011;27814;53.452;-6.180;2022-11-20T12:32:42;0.77;;;0.50;;
41815;SDS011;27814;53.452;-6.180;2022-11-20T12:35:52;3.17;;;0.50;;
41815;SDS011;27814;53.452;-6.180;2022-11-20T12:41:29;2.08;;;0.40;;
41815;SDS011;27814;53.452;-6.180;2022-11-20T12:50:32;3.83;;;0.68;;
41815;SDS011;27814;53.452;-6.180;2022-11-20T12:53:30;3.33;;;0.85;;
41815;SDS011;27814;53.452;-6.180;2022-11-20T12:56:04;2.50;;;0.60;;
41815;SDS011;27814;53.452;-6.180;2022-11-20T12:58:40;1.70;;;0.85;;
41815;SDS011;27814;53.452;-6.180;2022-11-20T13:01:21;3.08;;;0.63;;
41815;SDS011;27814;53.452;-6.180;2022-11-20T13:04:16;2.80;;;0.50;;
41815;SDS011;27814;53.452;-6.180;2022-11-20T13:06:58;2.40;;;0.68;;
41815;SDS011;27814;53.452;-6.180;2022-11-20T13:09:28;4.35;;;0.95;;
41815;SDS011;27814;53.452;-6.180;2022-11-20T13:12:00;3.58;;;0.63;;
41815;SDS011;27814;53.452;-6.180;2022-11-20T13:14:33;2.97;;;0.60;;
41815;SDS011;27814;53.452;-6.180;2022-11-20T13:17:10;4.32;;;0.70;;
41815;SDS011;27814;53.452;-6.180;2022-11-20T13:19:46;3.05;;;0.60;;
41815;SDS011;27814;53.452;-6.180;2022-11-20T13:22:23;2.25;;;0.73;;
41815;SDS011;27814;53.452;-6.180;2022-11-20T13:24:52;3.43;;;0.70;;
41815;SDS011;27814;53.452;-6.180;2022-11-20T13:27:21;4.57;;;1.10;;
41815;SDS011;27814;53.452;-6.180;2022-11-20T13:30:00;3.70;;;0.80;;
41815;SDS011;27814;53.452;-6.180;2022-11-20T13:32:49;3.47;;;0.63;;
41815;SDS011;27814;53.452;-6.180;2022-11-20T13:35:29;3.75;;;0.65;;
41815;SDS011;27814;53.452;-6.180;2022-11-20T13:37:59;4.15;;;0.82;;
41815;SDS011;27814;53.452;-6.180;2022-11-20T13:40:32;2.38;;;0.60;;
41815;SDS011;27814;53.452;-6.180;2022-11-20T13:43:16;3.28;;;0.60;;
41815;SDS011;27814;53.452;-6.180;2022-11-20T13:45:56;2.40;;;0.88;;
41815;SDS011;27814;53.452;-6.180;2022-11-20T13:48:29;2.45;;;0.93;;
41815;SDS011;27814;53.452;-6.180;2022-11-20T13:51:08;2.95;;;0.70;;
41815;SDS011;27814;53.452;-6.180;2022-11-20T13:53:53;3.37;;;0.80;;
41815;SDS011;27814;53.452;-6.180;2022-11-20T13:56:48;3.67;;;1.02;;
41815;SDS011;27814;53.452;-6.180;2022-11-20T13:59:28;3.65;;;0.70;;
41815;SDS011;27814;53.452;-6.180;2022-11-20T14:02:09;5.00;;;0.80;;
41815;SDS011;27814;53.452;-6.180;2022-11-20T14:04:43;3.15;;;1.10;;
41815;SDS011;27814;53.452;-6.180;2022-11-20T14:07:14;4.90;;;0.80;;
41815;SDS011;27814;53.452;-6.180;2022-11-20T14:09:49;4.05;;;1.00;;
41815;SDS011;27814;53.452;-6.180;2022-11-20T14:12:20;3.17;;;0.80;;
41815;SDS011;27814;53.452;-6.180;2022-11-20T14:14:51;2.88;;;0.80;;
41815;SDS011;27814;53.452;-6.180;2022-11-20T14:17:22;4.18;;;0.93;;
41815;SDS011;27814;53.452;-6.180;2022-11-20T14:19:58;4.20;;;0.82;;
41815;SDS011;27814;53.452;-6.180;2022-11-20T14:22:29;5.00;;;1.10;;
41815;SDS011;27814;53.452;-6.180;2022-11-20T14:25:02;6.40;;;0.90;;
41815;SDS011;27814;53.452;-6.180;2022-11-20T14:27:33;3.03;;;0.88;;
41815;SDS011;27814;53.452;-6.180;2022-11-20T14:30:05;5.45;;;0.90;;
41815;SDS011;27814;53.452;-6.180;2022-11-20T14:32:40;4.82;;;0.88;;
41815;SDS011;27814;53.452;-6.180;2022-11-20T14:35:13;4.32;;;0.98;;
41815;SDS011;27814;53.452;-6.180;2022-11-20T14:37:47;3.08;;;0.93;;
41815;SDS011;27814;53.452;-6.180;2022-11-20T14:40:26;4.45;;;1.23;;
41815;SDS011;27814;53.452;-6.180;2022-11-20T14:42:57;5.40;;;1.17;;
41815;SDS011;27814;53.452;-6.180;2022-11-20T14:45:27;3.97;;;1.00;;
41815;SDS011;27814;53.452;-6.180;2022-11-20T14:47:56;4.93;;;1.20;;
41815;SDS011;27814;53.452;-6.180;2022-11-20T14:50:28;4.77;;;1.20;;
41815;SDS011;27814;53.452;-6.180;2022-11-20T14:52:57;3.75;;;1.25;;
41815;SDS011;27814;53.452;-6.180;2022-11-20T14:55:28;4.25;;;1.10;;
41815;SDS011;27814;53.452;-6.180;2022-11-20T14:57:59;11.05;;;1.80;;
41815;SDS011;27814;53.452;-6.180;2022-11-20T15:00:29;5.43;;;0.90;;
41815;SDS011;27814;53.452;-6.180;2022-11-20T15:02:58;3.65;;;1.00;;
41815;SDS011;27814;53.452;-6.180;2022-11-20T15:05:45;7.82;;;2.08;;
41815;SDS011;27814;53.452;-6.180;2022-11-20T15:08:15;4.85;;;1.60;;
41815;SDS011;27814;53.452;-6.180;2022-11-20T15:10:45;6.68;;;1.70;;